Time;durP1;ratioP1;P1;durP2;ratioP2;P2;SDS_P1;SDS_P2;PMS_P1;PMS_P2;Temp;Humidity;BMP_temperature;BMP_pressure;BME280_temperature;BME280_humidity;BME280_pressure;Samples;Min_cycle;Max_cycle;Signal;HPM_P1;HPM_P2
2020/12/25 00:00:28;;;;;;;2.17;1.33;;;8.90;99.90;;;;;;5123005;27;20275;-81
2020/12/25 00:02:54;;;;;;;2.25;1.30;;;8.90;99.90;;;;;;5131233;27;20199;-81
2020/12/25 00:05:21;;;;;;;2.65;1.95;;;8.90;99.90;;;;;;5123352;27;20200;-81
2020/12/25 00:07:48;;;;;;;2.47;2.28;;;8.90;99.90;;;;;;5122661;27;20256;-82
2020/12/25 00:10:14;;;;;;;2.00;1.80;;;8.90;99.90;;;;;;5128437;27;20196;-79
2020/12/25 00:12:43;;;;;;;5.32;2.00;;;8.80;99.90;;;;;;5118362;27;20200;-82
2020/12/25 00:15:10;;;;;;;1.95;1.55;;;8.90;99.90;;;;;;5125063;27;20197;-81
2020/12/25 00:17:36;;;;;;;1.95;1.73;;;8.80;99.90;;;;;;5114645;27;20501;-79
2020/12/25 00:20:03;;;;;;;2.08;1.50;;;8.80;99.90;;;;;;5119427;27;20533;-82
2020/12/25 00:22:30;;;;;;;3.67;1.75;;;8.80;99.90;;;;;;5129779;27;20188;-85
2020/12/25 00:24:56;;;;;;;3.25;2.00;;;8.80;99.90;;;;;;5125320;27;20200;-85
2020/12/25 00:27:22;;;;;;;2.15;1.70;;;8.80;99.90;;;;;;5119427;27;20632;-86
2020/12/25 00:29:49;;;;;;;2.97;1.75;;;8.70;99.90;;;;;;5121716;27;20672;-85
2020/12/25 00:32:15;;;;;;;3.45;1.73;;;8.80;99.90;;;;;;5124931;27;20261;-85
2020/12/25 00:34:41;;;;;;;2.45;1.85;;;8.80;99.90;;;;;;5117203;27;20188;-85
2020/12/25 00:37:08;;;;;;;5.65;2.20;;;8.90;99.90;;;;;;5120301;27;20197;-85
2020/12/25 00:39:39;;;;;;;2.40;1.95;;;8.90;99.90;;;;;;5120380;27;21203;-86
2020/12/25 00:42:05;;;;;;;2.20;1.60;;;8.90;99.90;;;;;;5124112;27;20269;-86
2020/12/25 00:44:32;;;;;;;5.05;2.17;;;8.80;99.90;;;;;;5120966;27;21878;-78
2020/12/25 00:46:58;;;;;;;2.88;1.75;;;8.90;99.90;;;;;;5115819;27;20199;-77
2020/12/25 00:49:24;;;;;;;2.20;1.63;;;8.80;99.90;;;;;;5126384;27;20210;-83
2020/12/25 00:51:50;;;;;;;2.22;1.77;;;8.80;99.90;;;;;;5133559;27;20200;-82
2020/12/25 00:54:17;;;;;;;2.20;1.80;;;8.80;99.90;;;;;;5127793;27;20200;-83
2020/12/25 00:56:44;;;;;;;1.98;1.77;;;8.80;99.90;;;;;;5121741;27;20243;-82
2020/12/25 00:59:10;;;;;;;3.60;2.03;;;8.80;99.90;;;;;;5122417;27;20190;-82
2020/12/25 01:01:37;;;;;;;4.07;2.38;;;8.80;99.90;;;;;;5129475;27;20530;-82
2020/12/25 01:04:04;;;;;;;2.15;1.70;;;8.80;99.90;;;;;;5119372;27;20319;-84
2020/12/25 01:06:30;;;;;;;5.43;2.90;;;8.80;99.90;;;;;;5125311;27;20203;-83
2020/12/25 01:08:56;;;;;;;2.35;1.73;;;8.90;99.90;;;;;;5112807;27;20235;-84
2020/12/25 01:11:25;;;;;;;4.25;2.55;;;8.80;99.90;;;;;;5122509;27;20210;-82
2020/12/25 01:13:52;;;;;;;1.73;1.48;;;8.80;99.90;;;;;;5118164;27;20204;-83
2020/12/25 01:16:19;;;;;;;2.38;2.15;;;8.70;99.90;;;;;;5124387;27;20620;-86
2020/12/25 01:18:46;;;;;;;3.58;2.15;;;8.70;99.90;;;;;;5119988;27;20185;-86
2020/12/25 01:21:13;;;;;;;1.83;1.73;;;8.70;99.90;;;;;;5125953;27;20220;-86
2020/12/25 01:23:39;;;;;;;4.97;1.60;;;8.70;99.90;;;;;;5119394;27;21115;-86
2020/12/25 01:26:06;;;;;;;4.80;2.30;;;8.70;99.90;;;;;;5114811;27;20284;-86
2020/12/25 01:28:32;;;;;;;4.05;1.90;;;8.70;99.90;;;;;;5128903;27;20217;-86
2020/12/25 01:31:02;;;;;;;2.20;1.67;;;8.70;99.90;;;;;;5121684;27;20202;-86
2020/12/25 01:33:29;;;;;;;2.38;1.77;;;8.70;99.90;;;;;;5121628;27;20192;-85
2020/12/25 01:35:55;;;;;;;3.50;2.40;;;8.70;99.90;;;;;;5123471;27;20447;-86
2020/12/25 01:38:22;;;;;;;2.60;2.40;;;8.70;99.90;;;;;;5121311;27;20214;-86
2020/12/25 01:40:48;;;;;;;3.55;2.28;;;8.70;99.90;;;;;;5127123;27;20233;-85
2020/12/25 01:43:14;;;;;;;6.20;1.52;;;8.70;99.90;;;;;;5123016;27;20202;-85
2020/12/25 01:45:40;;;;;;;2.20;1.50;;;8.70;99.90;;;;;;5124408;27;20199;-84
2020/12/25 01:48:08;;;;;;;2.25;2.05;;;8.60;99.90;;;;;;5119293;27;20224;-85
2020/12/25 01:50:35;;;;;;;3.72;2.33;;;8.70;99.90;;;;;;5121857;27;20192;-85
2020/12/25 01:53:03;;;;;;;2.03;1.83;;;8.70;99.90;;;;;;5118502;27;20628;-85
2020/12/25 01:55:31;;;;;;;2.40;1.50;;;8.70;99.90;;;;;;5127863;27;20207;-85
2020/12/25 01:57:59;;;;;;;2.95;1.83;;;8.60;99.90;;;;;;5124577;27;20209;-88
2020/12/25 02:00:26;;;;;;;5.63;2.17;;;8.70;99.90;;;;;;5120371;27;20185;-87
2020/12/25 02:02:52;;;;;;;3.78;1.90;;;8.60;99.90;;;;;;5121287;27;20195;-88
2020/12/25 02:05:21;;;;;;;5.70;1.73;;;8.60;99.90;;;;;;5115118;27;20188;-86
2020/12/25 02:07:47;;;;;;;5.22;1.80;;;8.60;99.90;;;;;;5122124;27;20204;-87
2020/12/25 02:10:14;;;;;;;3.88;1.77;;;8.50;99.90;;;;;;5121943;27;20729;-87
2020/12/25 02:12:41;;;;;;;1.70;1.35;;;8.60;99.90;;;;;;5119530;27;20193;-87
2020/12/25 02:15:09;;;;;;;2.53;1.83;;;8.70;99.90;;;;;;5121145;27;20195;-87
2020/12/25 02:17:39;;;;;;;1.83;1.73;;;8.60;99.90;;;;;;5122696;27;20684;-89
2020/12/25 02:20:06;;;;;;;1.85;1.58;;;8.60;99.90;;;;;;5123317;27;20662;-87
2020/12/25 02:22:33;;;;;;;3.80;2.00;;;8.60;99.90;;;;;;5120892;27;20203;-89
2020/12/25 02:24:59;;;;;;;2.83;1.55;;;8.50;99.90;;;;;;5126880;27;20208;-88
2020/12/25 02:27:25;;;;;;;2.60;1.70;;;8.60;99.90;;;;;;5125478;27;20203;-87
2020/12/25 02:29:52;;;;;;;2.75;1.35;;;8.60;99.90;;;;;;5122382;27;20246;-86
2020/12/25 02:32:18;;;;;;;2.08;1.27;;;8.60;99.90;;;;;;5118889;27;20196;-85
2020/12/25 02:34:44;;;;;;;3.42;1.50;;;8.60;99.90;;;;;;5127221;27;20203;-83
2020/12/25 02:37:11;;;;;;;2.35;2.00;;;8.60;99.90;;;;;;5121369;27;20217;-83
2020/12/25 02:39:38;;;;;;;4.05;2.00;;;8.60;99.90;;;;;;5127472;27;20306;-83
2020/12/25 02:42:04;;;;;;;4.07;1.45;;;8.50;99.90;;;;;;5121327;27;20196;-83
2020/12/25 02:44:31;;;;;;;3.15;1.45;;;8.50;99.90;;;;;;5127727;27;20188;-83
2020/12/25 02:46:57;;;;;;;3.38;1.85;;;8.50;99.90;;;;;;5117653;27;20189;-82
2020/12/25 02:49:23;;;;;;;3.75;1.50;;;8.50;99.90;;;;;;5121340;27;20208;-83
2020/12/25 02:51:49;;;;;;;1.75;1.30;;;8.50;99.90;;;;;;5121218;27;20299;-83
2020/12/25 02:54:16;;;;;;;2.40;1.40;;;8.50;99.90;;;;;;5125551;27;20196;-83
2020/12/25 02:56:43;;;;;;;1.73;1.08;;;8.50;99.90;;;;;;5123631;27;21015;-83
2020/12/25 02:59:10;;;;;;;2.58;1.20;;;8.60;99.90;;;;;;5118638;27;20199;-85
2020/12/25 03:01:36;;;;;;;3.03;1.15;;;8.50;99.90;;;;;;5121777;27;20198;-88
2020/12/25 03:04:02;;;;;;;5.72;1.85;;;8.50;99.90;;;;;;5122545;27;20208;-85
2020/12/25 03:06:28;;;;;;;2.35;1.35;;;8.50;99.90;;;;;;5122553;27;20201;-85
2020/12/25 03:08:55;;;;;;;2.40;1.58;;;8.50;99.90;;;;;;5125230;27;20218;-86
2020/12/25 03:11:21;;;;;;;1.50;1.20;;;8.50;99.90;;;;;;5133912;27;20676;-86
2020/12/25 03:13:48;;;;;;;2.58;1.42;;;8.40;99.90;;;;;;5127929;27;20620;-87
2020/12/25 03:16:14;;;;;;;1.38;1.02;;;8.40;99.90;;;;;;5126964;27;20241;-87
2020/12/25 03:18:41;;;;;;;2.05;1.50;;;8.40;99.90;;;;;;5127987;27;20608;-86
2020/12/25 03:21:07;;;;;;;2.75;1.45;;;8.40;99.90;;;;;;5121945;27;20317;-86
2020/12/25 03:23:33;;;;;;;1.50;1.10;;;8.40;99.90;;;;;;5133559;27;20255;-87
2020/12/25 03:25:59;;;;;;;3.00;1.35;;;8.40;99.90;;;;;;5127736;27;20192;-87
2020/12/25 03:28:26;;;;;;;1.55;1.20;;;8.40;99.90;;;;;;5124662;27;20216;-87
2020/12/25 03:30:53;;;;;;;1.92;1.33;;;8.40;99.90;;;;;;5124910;27;20199;-88
2020/12/25 03:33:20;;;;;;;2.60;1.10;;;8.40;99.90;;;;;;5123757;27;20200;-88
2020/12/25 03:35:47;;;;;;;3.85;1.42;;;8.40;99.90;;;;;;5128867;27;20279;-88
2020/12/25 03:38:13;;;;;;;2.72;1.40;;;8.40;99.90;;;;;;5125345;27;20196;-87
2020/12/25 03:40:39;;;;;;;7.60;1.67;;;8.40;99.90;;;;;;5126410;27;20220;-88
2020/12/25 03:43:06;;;;;;;2.80;1.73;;;8.40;99.90;;;;;;5131978;27;20608;-88
2020/12/25 03:45:32;;;;;;;2.17;1.38;;;8.30;99.90;;;;;;5133296;27;20197;-88
2020/12/25 03:48:00;;;;;;;1.63;1.30;;;8.30;99.90;;;;;;5129416;27;20207;-87
2020/12/25 03:50:27;;;;;;;3.60;2.00;;;8.40;99.90;;;;;;5139991;27;20520;-86
2020/12/25 03:52:53;;;;;;;2.67;1.10;;;8.40;99.90;;;;;;5144016;27;20273;-86
2020/12/25 03:55:19;;;;;;;1.20;1.00;;;8.40;99.90;;;;;;5138361;27;20216;-87
2020/12/25 03:57:46;;;;;;;2.42;1.15;;;8.50;99.90;;;;;;5120875;27;20199;-86
2020/12/25 04:00:12;;;;;;;4.93;1.90;;;8.50;99.90;;;;;;5127035;27;20195;-86
2020/12/25 04:02:38;;;;;;;1.98;1.02;;;8.40;99.90;;;;;;5124151;27;20200;-86
2020/12/25 04:05:06;;;;;;;1.75;1.60;;;8.50;99.90;;;;;;5128755;27;20196;-86
2020/12/25 04:07:32;;;;;;;5.32;1.42;;;8.50;99.90;;;;;;5130507;27;20196;-86
2020/12/25 04:09:58;;;;;;;1.95;1.33;;;8.50;99.90;;;;;;5130876;27;20211;-87
2020/12/25 04:12:25;;;;;;;2.55;1.30;;;8.50;99.90;;;;;;5129587;27;20719;-87
2020/12/25 04:14:51;;;;;;;2.88;1.92;;;8.50;99.90;;;;;;5132729;27;20203;-87
2020/12/25 04:17:17;;;;;;;2.55;1.63;;;8.50;99.90;;;;;;5144215;27;20295;-87
2020/12/25 04:19:44;;;;;;;3.25;1.48;;;8.30;99.90;;;;;;5131551;27;20625;-85
2020/12/25 04:22:11;;;;;;;2.00;1.00;;;8.40;99.90;;;;;;5118693;27;20193;-85
2020/12/25 04:24:37;;;;;;;1.85;1.10;;;8.40;99.90;;;;;;5124646;27;20240;-85
2020/12/25 04:27:03;;;;;;;2.33;1.30;;;8.40;99.90;;;;;;5122478;27;20207;-85
2020/12/25 04:29:30;;;;;;;5.40;1.63;;;8.40;99.90;;;;;;5129145;27;20231;-87
2020/12/25 04:31:56;;;;;;;3.70;1.33;;;8.40;99.90;;;;;;5118930;27;20241;-86
2020/12/25 04:34:22;;;;;;;3.13;1.35;;;8.40;99.90;;;;;;5123608;27;20201;-84
2020/12/25 04:36:49;;;;;;;2.88;1.30;;;8.30;99.90;;;;;;5119074;27;20206;-84
2020/12/25 04:39:16;;;;;;;3.40;1.33;;;8.40;99.90;;;;;;5120510;27;20566;-84
2020/12/25 04:41:42;;;;;;;1.65;1.00;;;8.40;99.90;;;;;;5126390;27;20653;-86
2020/12/25 04:44:08;;;;;;;2.65;1.30;;;8.30;99.90;;;;;;5120333;27;20203;-85
2020/12/25 04:46:35;;;;;;;1.85;1.20;;;8.30;99.90;;;;;;5124941;27;20283;-87
2020/12/25 04:49:01;;;;;;;3.15;2.10;;;8.30;99.90;;;;;;5120205;27;20650;-84
2020/12/25 04:51:28;;;;;;;2.83;1.00;;;8.30;99.90;;;;;;5122482;27;20192;-82
2020/12/25 04:53:55;;;;;;;3.28;1.20;;;8.30;99.90;;;;;;5123439;27;20228;-86
2020/12/25 04:56:23;;;;;;;1.75;1.10;;;8.40;99.90;;;;;;5117853;27;20188;-86
2020/12/25 04:58:51;;;;;;;2.13;1.20;;;8.30;99.90;;;;;;5120334;27;20189;-86
2020/12/25 05:01:17;;;;;;;2.55;1.25;;;8.40;99.90;;;;;;5127205;27;20260;-86
2020/12/25 05:03:45;;;;;;;3.72;1.20;;;8.30;99.90;;;;;;5124159;27;20192;-86
2020/12/25 05:06:13;;;;;;;2.50;1.27;;;8.30;99.90;;;;;;5125330;27;20196;-86
2020/12/25 05:08:41;;;;;;;5.80;1.65;;;8.30;99.90;;;;;;5125776;27;20676;-86
2020/12/25 05:11:09;;;;;;;3.75;1.52;;;8.30;99.90;;;;;;5124757;27;20197;-86
2020/12/25 05:13:40;;;;;;;2.65;1.20;;;8.20;99.90;;;;;;5121857;27;20713;-85
2020/12/25 05:16:10;;;;;;;2.97;1.08;;;8.20;99.90;;;;;;5128106;27;20195;-84
2020/12/25 05:18:41;;;;;;;1.42;1.15;;;8.20;99.90;;;;;;5122717;27;20193;-85
2020/12/25 05:21:10;;;;;;;2.95;1.27;;;8.20;99.90;;;;;;5118218;27;20725;-85
2020/12/25 05:23:37;;;;;;;3.95;1.75;;;8.30;99.90;;;;;;5129540;27;20203;-85
2020/12/25 05:26:05;;;;;;;1.75;1.00;;;8.20;99.90;;;;;;5119917;27;20193;-85
2020/12/25 05:28:37;;;;;;;2.17;1.42;;;8.20;99.90;;;;;;5123979;27;20888;-85
2020/12/25 05:31:04;;;;;;;2.30;1.30;;;8.20;99.90;;;;;;5115514;27;20197;-86
2020/12/25 05:33:32;;;;;;;2.50;1.08;;;8.10;99.90;;;;;;5116667;27;20199;-87
2020/12/25 05:35:58;;;;;;;1.92;1.35;;;8.10;99.90;;;;;;5124616;27;20200;-87
2020/12/25 05:38:27;;;;;;;3.33;1.33;;;8.10;99.90;;;;;;5118927;27;20197;-86
2020/12/25 05:40:53;;;;;;;2.65;1.20;;;8.10;99.90;;;;;;5118766;27;20224;-85
2020/12/25 05:43:20;;;;;;;2.85;1.10;;;8.20;99.90;;;;;;5122858;27;20628;-85
2020/12/25 05:45:47;;;;;;;1.55;0.95;;;8.20;99.90;;;;;;5118016;27;20200;-85
2020/12/25 05:48:14;;;;;;;1.33;0.90;;;8.10;99.90;;;;;;5127933;27;20204;-85
2020/12/25 05:50:41;;;;;;;2.42;1.27;;;8.10;99.90;;;;;;5123737;27;20204;-86
2020/12/25 05:53:08;;;;;;;2.10;1.33;;;8.10;99.90;;;;;;5123917;27;20198;-83
2020/12/25 05:55:36;;;;;;;2.28;1.00;;;8.10;99.90;;;;;;5124958;27;20255;-83
2020/12/25 05:58:03;;;;;;;3.75;1.23;;;8.00;99.90;;;;;;5119490;27;20197;-83
2020/12/25 06:00:31;;;;;;;4.15;1.52;;;8.00;99.90;;;;;;5123390;27;20196;-84
2020/12/25 06:02:59;;;;;;;1.20;1.10;;;8.00;99.90;;;;;;5123092;27;20250;-86
2020/12/25 06:05:27;;;;;;;3.60;1.92;;;8.10;99.90;;;;;;5124427;27;20205;-86
2020/12/25 06:07:56;;;;;;;1.60;1.10;;;8.10;99.90;;;;;;5123916;27;20207;-86
2020/12/25 06:10:23;;;;;;;2.08;1.20;;;8.10;99.90;;;;;;5123573;27;20216;-86
2020/12/25 06:12:51;;;;;;;4.13;1.10;;;8.10;99.90;;;;;;5117705;27;20200;-87
2020/12/25 06:15:24;;;;;;;6.03;1.10;;;8.00;99.90;;;;;;5119701;27;20199;-87
2020/12/25 06:18:02;;;;;;;1.95;1.02;;;8.00;99.90;;;;;;5121348;27;20200;-88
2020/12/25 06:20:35;;;;;;;3.17;1.20;;;8.00;99.90;;;;;;5122616;27;20192;-87
2020/12/25 06:23:04;;;;;;;2.50;1.33;;;8.00;99.90;;;;;;5122325;27;20537;-88
2020/12/25 06:25:31;;;;;;;2.22;1.25;;;8.00;99.90;;;;;;5119940;27;20192;-87
2020/12/25 06:28:00;;;;;;;2.42;1.35;;;7.90;99.90;;;;;;5124179;27;20196;-87
2020/12/25 06:30:27;;;;;;;3.03;1.23;;;7.90;99.90;;;;;;5118765;27;20269;-87
2020/12/25 06:32:55;;;;;;;4.20;1.55;;;8.00;99.90;;;;;;5122373;27;20200;-87
2020/12/25 06:35:31;;;;;;;3.40;1.40;;;7.90;99.90;;;;;;5123786;27;20200;-88
2020/12/25 06:37:58;;;;;;;2.25;1.40;;;7.90;99.90;;;;;;5112762;28;20196;-87
2020/12/25 06:40:26;;;;;;;10.75;1.75;;;7.90;99.90;;;;;;5124518;27;20239;-88
2020/12/25 06:42:56;;;;;;;6.85;1.50;;;7.90;99.90;;;;;;5118489;27;20195;-87
2020/12/25 06:45:28;;;;;;;4.22;1.67;;;7.80;99.90;;;;;;5119782;27;20191;-87
2020/12/25 06:48:11;;;;;;;3.08;1.48;;;7.80;99.90;;;;;;5112593;27;20200;-85
2020/12/25 06:50:42;;;;;;;5.38;1.50;;;7.70;99.90;;;;;;5115038;27;20232;-85
2020/12/25 06:53:09;;;;;;;4.13;1.40;;;7.70;99.90;;;;;;5117663;27;20209;-86
2020/12/25 06:55:41;;;;;;;1.90;1.10;;;7.70;99.90;;;;;;5117882;27;20197;-86
2020/12/25 06:58:08;;;;;;;6.00;1.38;;;7.80;99.90;;;;;;5135019;27;20638;-85
2020/12/25 07:00:35;;;;;;;1.85;1.10;;;7.80;99.90;;;;;;5122721;27;20200;-86
2020/12/25 07:03:10;;;;;;;3.05;1.20;;;7.70;99.90;;;;;;5120231;27;20752;-85
2020/12/25 07:05:45;;;;;;;1.95;1.45;;;7.60;99.90;;;;;;5116231;28;20403;-85
2020/12/25 07:08:25;;;;;;;8.23;1.55;;;7.60;99.90;;;;;;5118006;28;20192;-84
2020/12/25 07:10:59;;;;;;;4.80;1.38;;;7.50;99.90;;;;;;5116419;28;20505;-84
2020/12/25 07:13:26;;;;;;;1.85;1.20;;;7.60;99.90;;;;;;5119109;28;21708;-85
2020/12/25 07:15:53;;;;;;;1.73;1.20;;;7.60;99.90;;;;;;5120306;27;20206;-84
2020/12/25 07:18:19;;;;;;;2.25;1.27;;;7.60;99.90;;;;;;5120589;27;20551;-84
2020/12/25 07:20:46;;;;;;;6.72;1.65;;;7.60;99.90;;;;;;5121494;28;20659;-81
2020/12/25 07:23:13;;;;;;;6.72;1.55;;;7.50;99.90;;;;;;5121753;28;20268;-84
2020/12/25 07:25:40;;;;;;;2.78;1.55;;;7.60;99.90;;;;;;5116075;28;20188;-83
2020/12/25 07:28:07;;;;;;;3.40;2.08;;;7.60;99.90;;;;;;5118730;28;20200;-84
2020/12/25 07:30:34;;;;;;;3.45;1.40;;;7.50;99.90;;;;;;5122205;27;20208;-86
2020/12/25 07:33:00;;;;;;;1.50;1.40;;;7.40;99.90;;;;;;5115773;28;20265;-84
2020/12/25 07:35:26;;;;;;;2.05;1.25;;;7.50;99.90;;;;;;5121767;28;20193;-83
2020/12/25 07:37:54;;;;;;;2.17;1.25;;;7.50;99.90;;;;;;5122570;28;20605;-83
2020/12/25 07:40:21;;;;;;;3.80;1.27;;;7.50;99.90;;;;;;5121192;27;20240;-80
2020/12/25 07:42:49;;;;;;;4.30;1.70;;;7.50;99.90;;;;;;5116829;27;20208;-81
2020/12/25 07:45:16;;;;;;;2.90;1.40;;;7.40;99.90;;;;;;5112997;28;20276;-83
2020/12/25 07:47:42;;;;;;;3.78;1.95;;;7.50;99.90;;;;;;5122895;27;20202;-83
2020/12/25 07:50:08;;;;;;;3.50;1.58;;;7.40;99.90;;;;;;5124294;28;20295;-84
2020/12/25 07:52:35;;;;;;;2.47;1.60;;;7.40;99.90;;;;;;5121399;28;20200;-84
2020/12/25 07:55:02;;;;;;;1.33;1.00;;;7.50;99.90;;;;;;5124830;27;20199;-83
2020/12/25 07:57:28;;;;;;;1.95;1.17;;;7.40;99.90;;;;;;5122485;27;20201;-85
2020/12/25 07:59:55;;;;;;;4.57;1.30;;;7.40;99.90;;;;;;5125430;27;20192;-85
2020/12/25 08:02:22;;;;;;;3.47;1.65;;;7.30;99.90;;;;;;5121654;27;20544;-81
2020/12/25 08:04:48;;;;;;;4.45;1.80;;;7.30;99.90;;;;;;5117302;27;20200;-76
2020/12/25 08:07:15;;;;;;;6.03;1.73;;;7.30;99.90;;;;;;5120493;27;20201;-81
2020/12/25 08:09:42;;;;;;;5.05;1.80;;;7.30;99.90;;;;;;5119287;27;20212;-81
2020/12/25 08:12:11;;;;;;;6.05;1.70;;;7.30;99.90;;;;;;5118385;27;20200;-80
2020/12/25 08:14:38;;;;;;;3.90;1.30;;;7.40;99.90;;;;;;5122559;27;20189;-81
2020/12/25 08:17:06;;;;;;;4.68;1.80;;;7.30;99.90;;;;;;5120419;27;20197;-80
2020/12/25 08:19:34;;;;;;;7.93;2.25;;;7.30;99.90;;;;;;5117965;27;20248;-80
2020/12/25 08:22:03;;;;;;;4.82;1.88;;;7.30;99.90;;;;;;5124041;27;20204;-80
2020/12/25 08:24:30;;;;;;;4.28;2.05;;;7.30;99.90;;;;;;5124351;27;20200;-79
2020/12/25 08:27:00;;;;;;;2.83;1.60;;;7.40;99.90;;;;;;5123108;27;20329;-79
2020/12/25 08:29:29;;;;;;;3.63;1.63;;;7.30;99.90;;;;;;5119263;27;20291;-83
2020/12/25 08:32:05;;;;;;;3.03;1.85;;;7.30;99.90;;;;;;5131532;27;20659;-82
2020/12/25 08:34:32;;;;;;;2.50;1.50;;;7.30;99.90;;;;;;5135581;27;20199;-81
2020/12/25 08:36:59;;;;;;;2.72;1.77;;;7.30;99.90;;;;;;5118042;27;20342;-82
2020/12/25 08:39:26;;;;;;;2.35;1.50;;;7.20;99.90;;;;;;5115289;28;20224;-81
2020/12/25 08:41:54;;;;;;;4.35;1.65;;;7.20;99.90;;;;;;5122755;27;20683;-81
2020/12/25 08:44:20;;;;;;;2.65;1.55;;;7.30;99.90;;;;;;5123462;27;20196;-81
2020/12/25 08:46:48;;;;;;;2.92;1.27;;;7.30;99.90;;;;;;5116283;27;20197;-80
2020/12/25 08:49:25;;;;;;;3.05;1.83;;;7.30;99.90;;;;;;5129322;27;20734;-80
2020/12/25 08:51:52;;;;;;;2.33;1.73;;;7.30;99.90;;;;;;5114279;28;20206;-80
2020/12/25 08:54:24;;;;;;;2.25;1.45;;;7.30;99.90;;;;;;5114198;28;20193;-82
2020/12/25 08:56:51;;;;;;;3.75;1.52;;;7.20;99.90;;;;;;5115741;27;20513;-82
2020/12/25 08:59:20;;;;;;;3.20;1.55;;;7.30;99.90;;;;;;5123816;27;20961;-81
2020/12/25 09:01:48;;;;;;;4.47;2.17;;;7.30;99.90;;;;;;5118451;27;20201;-84
2020/12/25 09:04:15;;;;;;;3.80;1.77;;;7.30;99.90;;;;;;5123249;27;20196;-83
2020/12/25 09:06:42;;;;;;;2.40;2.03;;;7.30;99.90;;;;;;5113577;27;20222;-81
2020/12/25 09:09:09;;;;;;;2.08;1.45;;;7.30;99.90;;;;;;5115074;28;20303;-82
2020/12/25 09:11:35;;;;;;;3.50;2.00;;;7.30;99.90;;;;;;5117822;27;20559;-84
2020/12/25 09:14:02;;;;;;;3.05;1.90;;;7.30;99.90;;;;;;5124267;27;20678;-84
2020/12/25 09:16:28;;;;;;;5.65;2.05;;;7.40;99.90;;;;;;5116868;27;20272;-83
2020/12/25 09:18:55;;;;;;;4.20;1.60;;;7.40;99.90;;;;;;5114353;28;20221;-84
2020/12/25 09:21:22;;;;;;;5.75;2.38;;;7.30;99.90;;;;;;5115086;27;20193;-84
2020/12/25 09:23:48;;;;;;;5.55;2.05;;;7.30;99.90;;;;;;5117129;27;20188;-79
2020/12/25 09:26:15;;;;;;;2.40;1.88;;;7.40;99.90;;;;;;5125012;27;20256;-79
2020/12/25 09:28:41;;;;;;;2.40;1.83;;;7.30;99.90;;;;;;5119017;27;20189;-79
2020/12/25 09:31:10;;;;;;;4.20;1.60;;;7.30;99.90;;;;;;5122855;27;20201;-77
2020/12/25 09:33:36;;;;;;;7.28;2.50;;;7.20;99.90;;;;;;5112628;27;20628;-79
2020/12/25 09:36:05;;;;;;;2.33;1.25;;;7.30;99.90;;;;;;5116505;27;20535;-78
2020/12/25 09:38:31;;;;;;;3.30;1.55;;;7.20;99.90;;;;;;5113654;28;20208;-78
2020/12/25 09:40:58;;;;;;;1.73;1.63;;;7.30;99.90;;;;;;5126546;27;20220;-78
2020/12/25 09:43:26;;;;;;;2.92;1.77;;;7.30;99.90;;;;;;5131473;27;20210;-78
2020/12/25 09:45:52;;;;;;;3.63;1.75;;;7.30;99.90;;;;;;5113288;28;20641;-78
2020/12/25 09:48:18;;;;;;;2.00;1.42;;;7.30;99.90;;;;;;5113169;28;20193;-78
2020/12/25 09:50:44;;;;;;;4.82;3.55;;;7.30;99.90;;;;;;5113216;28;20234;-78
2020/12/25 09:53:12;;;;;;;2.30;2.10;;;7.20;99.90;;;;;;5112917;28;20193;-78
2020/12/25 09:55:40;;;;;;;2.25;2.10;;;7.30;99.90;;;;;;5113200;28;20696;-78
2020/12/25 09:58:07;;;;;;;1.50;1.30;;;7.30;99.90;;;;;;5127393;27;20219;-78
2020/12/25 10:00:34;;;;;;;2.55;1.60;;;7.30;99.90;;;;;;5113402;28;20193;-78
2020/12/25 10:03:00;;;;;;;2.70;1.60;;;7.30;99.90;;;;;;5114037;27;20199;-79
2020/12/25 10:05:26;;;;;;;3.17;1.98;;;7.30;99.90;;;;;;5114015;27;20193;-80
2020/12/25 10:07:53;;;;;;;2.95;1.83;;;7.30;99.90;;;;;;5112883;28;20197;-80
2020/12/25 10:10:21;;;;;;;2.67;1.75;;;7.30;99.90;;;;;;5121114;27;20229;-79
2020/12/25 10:12:48;;;;;;;4.20;2.13;;;7.30;99.90;;;;;;5130221;27;20740;-79
2020/12/25 10:15:15;;;;;;;3.95;1.35;;;7.30;99.90;;;;;;5133478;27;20255;-79
2020/12/25 10:17:41;;;;;;;3.53;1.55;;;7.30;99.90;;;;;;5133095;27;20252;-79
2020/12/25 10:20:08;;;;;;;3.35;1.27;;;7.40;99.90;;;;;;5120055;27;20208;-79
2020/12/25 10:22:34;;;;;;;2.15;1.23;;;7.30;99.90;;;;;;5113374;28;20193;-79
2020/12/25 10:25:01;;;;;;;1.67;1.27;;;7.30;99.90;;;;;;5112989;27;20245;-78
2020/12/25 10:27:28;;;;;;;2.55;1.70;;;7.30;99.90;;;;;;5120015;27;20185;-79
2020/12/25 10:29:54;;;;;;;3.28;1.73;;;7.30;99.90;;;;;;5117037;27;20316;-78
2020/12/25 10:32:21;;;;;;;1.70;1.50;;;7.30;99.90;;;;;;5125030;27;20188;-77
2020/12/25 10:34:47;;;;;;;2.95;2.10;;;7.40;99.90;;;;;;5125353;27;20639;-77
2020/12/25 10:37:13;;;;;;;2.72;1.60;;;7.40;99.90;;;;;;5117282;27;20210;-78
2020/12/25 10:39:39;;;;;;;2.10;1.35;;;7.30;99.90;;;;;;5133600;27;20228;-77
2020/12/25 10:42:09;;;;;;;2.40;1.63;;;7.50;99.90;;;;;;5126090;27;20199;-78
2020/12/25 10:44:37;;;;;;;3.00;1.25;;;7.50;99.90;;;;;;5112800;27;20192;-78
2020/12/25 10:47:03;;;;;;;3.38;1.60;;;7.60;99.90;;;;;;5112087;28;20705;-73
2020/12/25 10:49:29;;;;;;;3.38;1.63;;;7.50;99.90;;;;;;5113897;27;20205;-74
2020/12/25 10:51:56;;;;;;;3.63;1.25;;;7.50;99.90;;;;;;5115498;27;20188;-79
2020/12/25 10:54:22;;;;;;;1.73;1.20;;;7.60;99.90;;;;;;5120556;27;20193;-80
2020/12/25 10:56:49;;;;;;;2.55;2.10;;;7.70;99.90;;;;;;5121356;27;20195;-79
2020/12/25 10:59:15;;;;;;;1.40;1.30;;;7.60;99.90;;;;;;5132907;27;20287;-79
2020/12/25 11:01:46;;;;;;;2.30;1.58;;;7.60;99.90;;;;;;5131389;27;20257;-79
2020/12/25 11:04:13;;;;;;;2.05;1.65;;;7.70;99.90;;;;;;5131342;27;20227;-79
2020/12/25 11:06:39;;;;;;;1.75;1.42;;;7.60;99.90;;;;;;5132598;27;20188;-80
2020/12/25 11:09:06;;;;;;;1.90;1.10;;;7.60;99.90;;;;;;5119261;27;20219;-79
2020/12/25 11:11:34;;;;;;;3.45;1.35;;;7.60;99.90;;;;;;5117090;27;20197;-78
2020/12/25 11:14:02;;;;;;;2.15;1.30;;;7.70;99.90;;;;;;5132616;27;20195;-79
2020/12/25 11:16:30;;;;;;;3.08;1.65;;;7.60;99.90;;;;;;5113761;27;20574;-79
2020/12/25 11:18:58;;;;;;;1.85;1.40;;;7.50;99.90;;;;;;5112525;27;20518;-78
2020/12/25 11:21:26;;;;;;;2.20;1.58;;;7.50;99.90;;;;;;5113065;27;20621;-77
2020/12/25 11:23:54;;;;;;;5.60;1.58;;;7.50;99.90;;;;;;5111630;28;20201;-77
2020/12/25 11:26:22;;;;;;;4.38;1.60;;;7.40;99.90;;;;;;5126024;27;20653;-77
2020/12/25 11:28:49;;;;;;;3.17;1.52;;;7.50;99.90;;;;;;5112278;27;20332;-79
2020/12/25 11:31:16;;;;;;;1.38;1.00;;;7.40;99.90;;;;;;5118801;27;20289;-79
2020/12/25 11:33:42;;;;;;;2.95;1.40;;;7.40;99.90;;;;;;5141074;27;20524;-79
2020/12/25 11:36:13;;;;;;;5.07;1.48;;;7.40;99.90;;;;;;5136293;27;20203;-79
2020/12/25 11:38:40;;;;;;;2.60;1.67;;;7.40;99.90;;;;;;5136551;27;20203;-76
2020/12/25 11:41:10;;;;;;;1.48;1.10;;;7.40;99.90;;;;;;5137024;27;20698;-80
2020/12/25 11:43:38;;;;;;;2.25;1.45;;;7.40;99.90;;;;;;5117265;27;20196;-80
2020/12/25 11:46:05;;;;;;;2.83;1.50;;;7.50;99.90;;;;;;5116285;28;20279;-77
2020/12/25 11:48:31;;;;;;;1.58;1.25;;;7.40;99.90;;;;;;5125889;27;20856;-78
2020/12/25 11:50:58;;;;;;;2.95;1.63;;;7.40;99.90;;;;;;5114497;28;20299;-80
2020/12/25 11:53:25;;;;;;;4.82;1.50;;;7.40;99.90;;;;;;5133712;27;20210;-80
2020/12/25 11:55:52;;;;;;;2.10;1.45;;;7.40;99.90;;;;;;5135774;27;20201;-80
2020/12/25 11:58:18;;;;;;;1.90;1.33;;;7.40;99.90;;;;;;5132468;27;20203;-76
2020/12/25 12:00:45;;;;;;;3.90;2.00;;;7.40;99.90;;;;;;5134362;27;20305;-83
2020/12/25 12:03:11;;;;;;;3.22;1.52;;;7.40;99.90;;;;;;5129550;27;20561;-77
2020/12/25 12:05:40;;;;;;;1.80;1.55;;;7.50;99.90;;;;;;5123612;27;20188;-78
2020/12/25 12:08:07;;;;;;;7.63;1.92;;;7.40;99.90;;;;;;5134713;27;20203;-76
2020/12/25 12:10:34;;;;;;;3.47;1.52;;;7.40;99.90;;;;;;5133585;27;20222;-76
2020/12/25 12:13:00;;;;;;;1.85;1.40;;;7.50;99.90;;;;;;5122313;27;20527;-76
2020/12/25 12:15:26;;;;;;;4.13;1.90;;;7.50;99.90;;;;;;5126481;27;20658;-76
2020/12/25 12:17:53;;;;;;;1.85;1.50;;;7.50;99.90;;;;;;5128945;27;20194;-77
2020/12/25 12:20:19;;;;;;;3.00;1.23;;;7.50;99.90;;;;;;5135363;27;20200;-76
2020/12/25 12:22:46;;;;;;;2.38;1.40;;;7.50;99.90;;;;;;5124774;27;20287;-80
2020/12/25 12:25:12;;;;;;;2.20;1.90;;;7.50;99.90;;;;;;5115132;27;20691;-80
2020/12/25 12:27:39;;;;;;;2.55;1.75;;;7.50;99.90;;;;;;5117727;27;20261;-80
2020/12/25 12:30:07;;;;;;;3.25;1.45;;;7.50;99.90;;;;;;5134849;27;20685;-80
2020/12/25 12:32:33;;;;;;;2.85;1.65;;;7.50;99.90;;;;;;5129806;27;20208;-79
2020/12/25 12:34:59;;;;;;;4.38;1.70;;;7.50;99.90;;;;;;5126986;27;20196;-79
2020/12/25 12:37:26;;;;;;;5.13;1.90;;;7.50;99.90;;;;;;5130800;27;20204;-77
2020/12/25 12:39:52;;;;;;;2.53;1.38;;;7.50;99.90;;;;;;5130164;27;20608;-79
2020/12/25 12:42:18;;;;;;;4.25;3.20;;;7.50;99.90;;;;;;5121434;27;20196;-80
2020/12/25 12:44:45;;;;;;;2.20;2.00;;;7.50;99.90;;;;;;5126323;27;20214;-78
2020/12/25 12:47:12;;;;;;;4.07;2.65;;;7.50;99.90;;;;;;5122952;27;20539;-79
2020/12/25 12:49:38;;;;;;;5.05;2.28;;;7.60;99.90;;;;;;5115152;28;20212;-80
2020/12/25 12:52:04;;;;;;;4.18;1.67;;;7.50;99.90;;;;;;5118229;27;20223;-80
2020/12/25 12:54:30;;;;;;;5.45;2.38;;;7.60;99.90;;;;;;5125242;27;20200;-80
2020/12/25 12:56:57;;;;;;;3.38;1.60;;;7.50;99.90;;;;;;5131022;27;20200;-79